createdAt,value
2022-08-16T00:01:40.852Z,0.00
2022-08-16T00:06:39.493Z,0.00
2022-08-16T00:11:37.818Z,0.00
2022-08-16T00:17:06.680Z,0.00
2022-08-16T00:21:38.844Z,0.00
2022-08-16T00:26:44.960Z,0.00
2022-08-16T00:31:59.624Z,0.00
2022-08-16T00:36:47.316Z,0.00
2022-08-16T00:41:38.591Z,0.00
2022-08-16T00:46:37.438Z,0.00
2022-08-16T00:51:38.627Z,0.00
2022-08-16T00:56:56.171Z,0.00
2022-08-16T01:01:38.240Z,0.00
2022-08-16T01:06:48.580Z,0.00
2022-08-16T01:11:37.983Z,0.00
2022-08-16T01:16:37.899Z,0.00
2022-08-16T01:21:39.709Z,0.00
2022-08-16T01:26:36.866Z,0.00
2022-08-16T01:31:42.563Z,0.00
2022-08-16T01:36:40.720Z,0.00
2022-08-16T01:41:42.123Z,0.00
2022-08-16T01:46:39.838Z,0.00
2022-08-16T01:51:36.413Z,0.00
2022-08-16T01:56:36.442Z,0.00
2022-08-16T02:01:36.438Z,0.00
2022-08-16T02:06:38.615Z,0.00
2022-08-16T02:11:47.855Z,0.00
2022-08-16T02:16:37.273Z,0.00
2022-08-16T02:21:36.011Z,0.00
2022-08-16T02:26:36.151Z,0.00
2022-08-16T02:32:03.815Z,0.00
2022-08-16T02:36:47.335Z,0.00
2022-08-16T02:41:37.380Z,0.00
2022-08-16T02:46:35.870Z,0.00
2022-08-16T02:51:35.841Z,0.00
2022-08-16T02:56:35.835Z,0.00
2022-08-16T03:01:37.183Z,0.00
2022-08-16T03:06:38.869Z,0.00
2022-08-16T03:11:36.407Z,0.00
2022-08-16T03:16:39.104Z,0.00
2022-08-16T03:21:37.763Z,0.00
2022-08-16T03:26:35.203Z,0.00
2022-08-16T03:31:40.560Z,0.00
2022-08-16T03:36:39.213Z,0.00
2022-08-16T03:41:50.149Z,0.00
2022-08-16T03:46:47.420Z,0.00
2022-08-16T03:51:35.872Z,5.62
2022-08-16T03:56:34.780Z,11.25
2022-08-16T04:01:34.762Z,16.88
2022-08-16T04:06:34.667Z,22.50
2022-08-16T04:11:36.863Z,33.75
2022-08-16T04:16:34.558Z,45.00
2022-08-16T04:21:34.739Z,78.75
2022-08-16T04:26:34.430Z,90.00
2022-08-16T04:31:34.273Z,163.12
2022-08-16T04:36:37.225Z,236.25
2022-08-16T04:41:37.636Z,483.75
2022-08-16T04:47:02.765Z,410.62
2022-08-16T04:51:36.013Z,393.75
2022-08-16T04:56:34.189Z,433.12
2022-08-16T05:01:58.937Z,461.25
2022-08-16T05:06:42.146Z,495.00
2022-08-16T05:11:34.776Z,528.75
2022-08-16T05:16:33.744Z,573.75
2022-08-16T05:21:35.965Z,630.00
2022-08-16T05:26:34.890Z,680.62
2022-08-16T05:31:35.117Z,720.00
2022-08-16T05:36:37.202Z,281.25
2022-08-16T05:41:33.388Z,281.25
2022-08-16T05:46:34.543Z,281.25
2022-08-16T05:51:37.639Z,286.88
2022-08-16T05:56:37.720Z,646.88
2022-08-16T06:01:33.229Z,905.62
2022-08-16T06:06:34.672Z,348.75
2022-08-16T06:11:33.053Z,866.25
2022-08-16T06:16:33.084Z,1063.12
2022-08-16T06:31:56.158Z,1254.38
2022-08-16T06:36:59.305Z,1327.50
2022-08-16T06:44:42.179Z,1473.75
2022-08-16T06:54:18.998Z,1760.62
2022-08-16T07:33:52.468Z,2137.50
2022-08-16T07:38:50.656Z,2176.88
2022-08-16T07:43:50.344Z,2131.88
2022-08-16T07:48:55.350Z,2356.88
2022-08-16T07:59:52.857Z,2396.25
2022-08-16T08:10:35.027Z,2199.38
2022-08-16T08:15:34.471Z,2430.00
2022-08-16T08:20:33.739Z,720.00
2022-08-16T08:25:53.827Z,562.50
2022-08-16T08:30:51.542Z,433.12
2022-08-16T08:35:33.436Z,399.38
2022-08-16T08:46:28.182Z,416.25
2022-08-16T08:52:40.657Z,388.12
2022-08-16T08:57:40.646Z,360.00
2022-08-16T09:02:40.066Z,382.50
2022-08-16T09:08:00.959Z,388.12
2022-08-16T09:12:41.066Z,382.50
2022-08-16T09:17:51.660Z,455.62
2022-08-16T09:22:40.877Z,478.12
2022-08-16T09:27:56.833Z,556.88
2022-08-16T09:32:40.794Z,523.12
2022-08-16T09:37:40.590Z,562.50
2022-08-16T09:42:55.822Z,556.88
2022-08-16T09:47:57.147Z,585.00
2022-08-16T09:52:44.106Z,523.12
2022-08-16T09:57:40.302Z,466.88
2022-08-16T10:02:48.889Z,500.62
2022-08-16T10:07:55.867Z,517.50
2022-08-16T10:12:42.500Z,596.25
2022-08-16T10:17:39.247Z,427.50
2022-08-16T10:22:39.170Z,371.25
2022-08-16T10:27:46.148Z,438.75
2022-08-16T10:32:40.178Z,461.25
2022-08-16T10:37:39.109Z,461.25
2022-08-16T10:42:41.937Z,500.62
2022-08-16T10:47:38.915Z,579.38
2022-08-16T10:57:38.545Z,601.88
2022-08-16T11:02:58.872Z,663.75
2022-08-16T11:07:45.415Z,410.62
2022-08-16T11:12:39.573Z,371.25
2022-08-16T11:17:38.456Z,410.62
2022-08-16T11:22:48.533Z,500.62
2022-08-16T11:27:39.136Z,506.25
2022-08-16T11:32:38.124Z,511.88
2022-08-16T11:42:42.293Z,703.12
2022-08-16T11:47:37.963Z,849.38
2022-08-16T11:52:37.870Z,804.38
2022-08-16T11:57:37.964Z,675.00
2022-08-16T12:02:37.887Z,545.62
2022-08-16T12:07:38.652Z,511.88
2022-08-16T12:12:37.619Z,534.38
2022-08-16T12:17:38.829Z,714.38
2022-08-16T12:22:37.581Z,759.38
2022-08-16T12:27:39.476Z,635.62
2022-08-16T12:32:41.928Z,652.50
2022-08-16T12:37:38.911Z,725.62
2022-08-16T12:42:40.249Z,703.12
2022-08-16T12:47:38.197Z,742.50
2022-08-16T12:52:41.669Z,725.62
2022-08-16T12:57:38.134Z,658.12
2022-08-16T13:02:36.951Z,708.75
2022-08-16T13:07:42.587Z,691.88
2022-08-16T13:12:37.865Z,669.38
2022-08-16T13:17:37.974Z,495.00
2022-08-16T13:22:37.878Z,444.38
2022-08-16T13:28:02.604Z,500.62
2022-08-16T13:32:39.785Z,472.50
2022-08-16T13:37:36.556Z,573.75
2022-08-16T13:42:41.472Z,663.75
2022-08-16T13:47:36.658Z,517.50
2022-08-16T13:52:44.710Z,489.38
2022-08-16T13:57:53.563Z,478.12
2022-08-16T14:02:37.313Z,534.38
2022-08-16T14:07:36.412Z,601.88
2022-08-16T14:12:36.343Z,540.00
2022-08-16T14:18:14.791Z,517.50
2022-08-16T14:22:40.001Z,500.62
2022-08-16T14:27:39.034Z,540.00
2022-08-16T14:32:37.099Z,523.12
2022-08-16T14:37:35.909Z,534.38
2022-08-16T14:42:39.827Z,556.88
2022-08-16T14:47:35.739Z,534.38
2022-08-16T14:52:55.242Z,528.75
2022-08-16T14:57:36.750Z,556.88
2022-08-16T15:02:35.471Z,562.50
2022-08-16T15:07:35.581Z,562.50
2022-08-16T15:12:36.335Z,562.50
2022-08-16T15:17:36.998Z,545.62
2022-08-16T15:22:35.388Z,461.25
2022-08-16T15:27:35.767Z,320.62
2022-08-16T15:32:35.249Z,326.25
2022-08-16T15:37:53.360Z,270.00
2022-08-16T15:42:39.094Z,241.88
2022-08-16T15:47:35.565Z,241.88
2022-08-16T15:52:35.886Z,241.88
2022-08-16T15:57:41.151Z,230.62
2022-08-16T16:02:35.873Z,264.38
2022-08-16T16:07:34.756Z,275.62
2022-08-16T16:12:53.806Z,275.62
2022-08-16T16:17:35.597Z,247.50
2022-08-16T16:22:34.452Z,213.75
2022-08-16T16:27:34.433Z,196.88
2022-08-16T16:32:34.919Z,185.62
2022-08-16T16:37:34.304Z,196.88
2022-08-16T16:42:44.159Z,168.75
2022-08-16T16:47:40.713Z,174.38
2022-08-16T16:52:44.748Z,163.12
2022-08-16T16:57:35.307Z,157.50
2022-08-16T17:02:41.861Z,157.50
2022-08-16T17:07:34.992Z,146.25
2022-08-16T17:12:47.008Z,146.25
2022-08-16T17:17:59.431Z,157.50
2022-08-16T17:22:34.761Z,146.25
2022-08-16T17:27:34.247Z,129.38
2022-08-16T17:32:47.440Z,118.12
2022-08-16T17:37:50.741Z,106.88
2022-08-16T17:42:37.492Z,95.62
2022-08-16T17:47:33.436Z,84.38
2022-08-16T17:52:33.355Z,78.75
2022-08-16T17:57:33.295Z,67.50
2022-08-16T18:02:43.408Z,56.25
2022-08-16T18:07:34.154Z,45.00
2022-08-16T18:12:51.084Z,39.38
2022-08-16T18:17:34.046Z,28.12
2022-08-16T18:22:32.936Z,16.88
2022-08-16T18:27:32.847Z,11.25
2022-08-16T18:32:32.792Z,5.62
2022-08-16T18:37:33.773Z,5.62
2022-08-16T18:42:35.702Z,0.00
2022-08-16T18:47:32.785Z,0.00
2022-08-16T18:52:32.826Z,0.00
2022-08-16T18:57:32.451Z,0.00
2022-08-16T19:02:43.004Z,0.00
2022-08-16T19:07:35.149Z,0.00
2022-08-16T19:12:37.970Z,0.00
2022-08-16T19:17:33.341Z,0.00
2022-08-16T19:22:59.579Z,0.00
2022-08-16T19:27:33.743Z,0.00
2022-08-16T19:32:32.168Z,0.00
2022-08-16T19:37:32.061Z,0.00
2022-08-16T19:42:34.981Z,0.00
2022-08-16T19:47:31.862Z,0.00
2022-08-16T19:52:31.855Z,0.00
2022-08-16T19:57:31.841Z,0.00
2022-08-16T20:02:36.104Z,0.00
2022-08-16T20:07:32.753Z,0.00
2022-08-16T20:12:31.417Z,0.00
2022-08-16T20:17:31.487Z,0.00
2022-08-16T20:22:52.431Z,0.00
2022-08-16T20:27:32.349Z,0.00
2022-08-16T20:32:36.094Z,0.00
2022-08-16T20:37:32.207Z,0.00
2022-08-16T20:42:34.160Z,0.00
2022-08-16T20:47:31.007Z,0.00
2022-08-16T20:52:30.966Z,0.00
2022-08-16T20:57:30.940Z,0.00
2022-08-16T21:02:30.802Z,0.00
2022-08-16T21:07:30.724Z,0.00
2022-08-16T21:12:31.448Z,0.00
2022-08-16T21:17:30.611Z,0.00
2022-08-16T21:22:30.615Z,0.00
2022-08-16T21:27:30.457Z,0.00
2022-08-16T21:32:35.375Z,0.00
2022-08-16T21:37:31.422Z,0.00
2022-08-16T21:42:36.393Z,0.00
2022-08-16T21:47:30.222Z,0.00
2022-08-16T21:52:30.244Z,0.00
2022-08-16T21:57:36.270Z,0.00
2022-08-16T22:02:32.736Z,0.00
2022-08-16T22:07:29.980Z,0.00
2022-08-16T22:12:30.013Z,0.00
2022-08-16T22:17:29.843Z,0.00
2022-08-16T22:22:38.467Z,0.00
2022-08-16T22:27:29.806Z,0.00
2022-08-16T22:32:29.625Z,0.00
2022-08-16T22:37:29.686Z,0.00
2022-08-16T22:42:32.515Z,0.00
2022-08-16T22:47:29.443Z,0.00
2022-08-16T22:52:36.753Z,0.00
2022-08-16T22:57:30.324Z,0.00
2022-08-16T23:02:29.197Z,0.00
2022-08-16T23:07:29.152Z,0.00
2022-08-16T23:12:30.770Z,0.00
2022-08-16T23:17:29.100Z,0.00
2022-08-16T23:22:28.923Z,0.00
2022-08-16T23:27:29.051Z,0.00
2022-08-16T23:32:28.903Z,0.00
2022-08-16T23:37:34.654Z,0.00
2022-08-16T23:42:44.693Z,0.00
2022-08-16T23:47:29.624Z,0.00
2022-08-16T23:52:53.209Z,0.00
2022-08-16T23:57:29.541Z,0.00
